^^
Saratoga-Weather Station Historical Data
Daily Summary for October 7, 2020 Units:  Both    English   Metric
Daily Weekly Monthly Yearly Custom
  High: Low: Average:
Temperature: 60.1 °F /  15.6 °C 50.7 °F /  10.4 °C 54 °F /  12.2 °C
Dew Point: 53.2 °F /  11.8 °C 48.6 °F /  9.2 °C 50.4 °F /  10.2 °C
Humidity: 94% 71% 88%
Wind Speed: 15mph /  24.1km/h - 4mph /  6.5km/h
Wind Gust: 17mph /  27.4km/h - -
Wind- - West
Pressure: 30.1 in /  1019.6 hPa 29.7 in /  1005.4 hPa -
Precipitation: 0.17 in /  4.3 mm    
Historical Graphs
 
 
Tabular Data for October 7, 2020
Time Temperature Dew Point Pressure Wind Wind Speed Wind Gust Humidity Rainfall Rate (Hourly) solar
00:03 52.9 °F /  11.6 °C 50 °F /  10 °C 29.7in /  1005.8hPa NNW 2mph /  3.2km/h 8mph /  12.9km/h 90% 0.01in /  0.2mm 0 W/m2
00:08 52.9 °F /  11.6 °C 50 °F /  10 °C 29.7in /  1005.4hPa WNW 6.9mph /  11.1km/h 10mph /  16.1km/h 90% 0.01in /  0.2mm 0 W/m2
00:13 53.1 °F /  11.7 °C 50.2 °F /  10.1 °C 29.7in /  1005.8hPa NW 2.9mph /  4.7km/h 10mph /  16.1km/h 90% 0.01in /  0.2mm 0 W/m2
00:18 53.1 °F /  11.7 °C 50.2 °F /  10.1 °C 29.7in /  1005.8hPa North 4mph /  6.4km/h 4mph /  6.4km/h 90% 0.01in /  0.2mm 0 W/m2
00:23 53.1 °F /  11.7 °C 49.8 °F /  9.9 °C 29.7in /  1005.8hPa West 2mph /  3.2km/h 10mph /  16.1km/h 89% 0.01in /  0.2mm 0 W/m2
00:28 53.1 °F /  11.7 °C 49.8 °F /  9.9 °C 29.7in /  1005.8hPa WNW 2.9mph /  4.7km/h 9mph /  14.5km/h 89% 0.01in /  0.2mm 0 W/m2
00:33 53.1 °F /  11.7 °C 49.8 °F /  9.9 °C 29.7in /  1005.8hPa WNW 6.9mph /  11.1km/h 12mph /  19.3km/h 89% 0in /  0.0mm 0 W/m2
00:38 53.1 °F /  11.7 °C 49.8 °F /  9.9 °C 29.7in /  1005.8hPa WNW 4mph /  6.4km/h 12mph /  19.3km/h 89% 0in /  0.0mm 0 W/m2
00:43 53.1 °F /  11.7 °C 49.8 °F /  9.9 °C 29.7in /  1006.1hPa WNW 2mph /  3.2km/h 9mph /  14.5km/h 89% 0in /  0.0mm 0 W/m2
00:48 53.1 °F /  11.7 °C 49.8 °F /  9.9 °C 29.7in /  1006.1hPa NW 4mph /  6.4km/h 12mph /  19.3km/h 89% 0in /  0.0mm 0 W/m2
00:53 53.1 °F /  11.7 °C 49.8 °F /  9.9 °C 29.7in /  1006.1hPa NW 6mph /  9.7km/h 6mph /  9.7km/h 89% 0in /  0.0mm 0 W/m2
00:58 52.9 °F /  11.6 °C 50 °F /  10 °C 29.7in /  1005.8hPa WNW 4mph /  6.4km/h 8mph /  12.9km/h 90% 0in /  0.0mm 0 W/m2
01:03 52.9 °F /  11.6 °C 50 °F /  10 °C 29.7in /  1006.1hPa WNW 4mph /  6.4km/h 9mph /  14.5km/h 90% 0in /  0.0mm 0 W/m2
01:08 52.9 °F /  11.6 °C 50 °F /  10 °C 29.7in /  1006.1hPa WNW 2mph /  3.2km/h 7mph /  11.3km/h 90% 0in /  0.0mm 0 W/m2
01:13 52.9 °F /  11.6 °C 50 °F /  10 °C 29.7in /  1006.1hPa WNW 2mph /  3.2km/h 10mph /  16.1km/h 90% 0in /  0.0mm 0 W/m2
01:18 52.9 °F /  11.6 °C 49.6 °F /  9.8 °C 29.7in /  1006.1hPa WNW 4mph /  6.4km/h 5mph /  8km/h 89% 0in /  0.0mm 0 W/m2
01:23 53.1 °F /  11.7 °C 49.8 °F /  9.9 °C 29.7in /  1006.1hPa NNW 2.9mph /  4.7km/h 14mph /  22.5km/h 89% 0in /  0.0mm 0 W/m2
01:28 53.1 °F /  11.7 °C 49.8 °F /  9.9 °C 29.7in /  1006.1hPa NW 2mph /  3.2km/h 4mph /  6.4km/h 89% 0in /  0.0mm 0 W/m2
01:33 53.1 °F /  11.7 °C 49.8 °F /  9.9 °C 29.7in /  1006.1hPa West 12.1mph /  19.5km/h 12mph /  19.3km/h 89% 0in /  0.0mm 0 W/m2
01:38 53.1 °F /  11.7 °C 49.8 °F /  9.9 °C 29.7in /  1006.1hPa South 4.9mph /  7.9km/h 6mph /  9.7km/h 89% 0in /  0.0mm 0 W/m2
01:43 53.1 °F /  11.7 °C 49.6 °F /  9.8 °C 29.7in /  1006.1hPa NW 10.1mph /  16.3km/h 12mph /  19.3km/h 88% 0in /  0.0mm 0 W/m2
01:48 53.1 °F /  11.7 °C 49.6 °F /  9.8 °C 29.7in /  1006.1hPa WNW 6.9mph /  11.1km/h 9mph /  14.5km/h 88% 0in /  0.0mm 0 W/m2
01:53 53.1 °F /  11.7 °C 49.6 °F /  9.8 °C 29.7in /  1006.1hPa West 6.9mph /  11.1km/h 14mph /  22.5km/h 88% 0in /  0.0mm 0 W/m2
01:58 53.1 °F /  11.7 °C 49.6 °F /  9.8 °C 29.7in /  1006.1hPa NNW 2mph /  3.2km/h 8mph /  12.9km/h 88% 0in /  0.0mm 0 W/m2
02:03 53.1 °F /  11.7 °C 49.6 °F /  9.8 °C 29.7in /  1006.1hPa NW 2mph /  3.2km/h 14mph /  22.5km/h 88% 0in /  0.0mm 0 W/m2
02:08 52.9 °F /  11.6 °C 49.6 °F /  9.8 °C 29.7in /  1006.4hPa SW 4mph /  6.4km/h 9mph /  14.5km/h 89% 0in /  0.0mm 0 W/m2
02:13 52.5 °F /  11.4 °C 49.6 °F /  9.8 °C 29.7in /  1006.4hPa West 2mph /  3.2km/h 11mph /  17.7km/h 90% 0in /  0.0mm 0 W/m2
02:18 52.5 °F /  11.4 °C 49.6 °F /  9.8 °C 29.7in /  1006.4hPa SW 0.9mph /  1.4km/h 7mph /  11.3km/h 90% 0in /  0.0mm 0 W/m2
02:23 52.3 °F /  11.3 °C 49.8 °F /  9.9 °C 29.7in /  1006.4hPa WSW 2mph /  3.2km/h 9mph /  14.5km/h 91% 0.01in /  0.2mm 0 W/m2
02:28 52.3 °F /  11.3 °C 49.8 °F /  9.9 °C 29.7in /  1006.4hPa West 2.9mph /  4.7km/h 3mph /  4.8km/h 91% 0.01in /  0.2mm 0 W/m2
02:33 52.2 °F /  11.2 °C 49.8 °F /  9.9 °C 29.7in /  1006.4hPa NW 4mph /  6.4km/h 9mph /  14.5km/h 92% 0.01in /  0.2mm 0 W/m2
02:38 52.2 °F /  11.2 °C 49.8 °F /  9.9 °C 29.7in /  1006.4hPa West 4mph /  6.4km/h 8mph /  12.9km/h 92% 0.01in /  0.2mm 0 W/m2
02:43 52.2 °F /  11.2 °C 49.8 °F /  9.9 °C 29.7in /  1006.4hPa NW 4mph /  6.4km/h 9mph /  14.5km/h 92% 0.01in /  0.2mm 0 W/m2
02:48 52.2 °F /  11.2 °C 49.8 °F /  9.9 °C 29.7in /  1006.4hPa West 2mph /  3.2km/h 10mph /  16.1km/h 92% 0.01in /  0.2mm 0 W/m2
02:53 52 °F /  11.1 °C 49.6 °F /  9.8 °C 29.7in /  1006.8hPa West 8.1mph /  13km/h 8mph /  12.9km/h 92% 0.02in /  0.5mm 0 W/m2
02:58 52 °F /  11.1 °C 49.6 °F /  9.8 °C 29.7in /  1006.4hPa NW 2mph /  3.2km/h 7mph /  11.3km/h 92% 0.02in /  0.5mm 0 W/m2
03:03 52 °F /  11.1 °C 49.6 °F /  9.8 °C 29.7in /  1006.4hPa WNW 2.9mph /  4.7km/h 14mph /  22.5km/h 92% 0.02in /  0.5mm 0 W/m2
03:08 52 °F /  11.1 °C 49.6 °F /  9.8 °C 29.7in /  1006.8hPa West 2.9mph /  4.7km/h 6mph /  9.7km/h 92% 0.02in /  0.5mm 0 W/m2
03:13 52.2 °F /  11.2 °C 49.8 °F /  9.9 °C 29.7in /  1006.8hPa West 6mph /  9.7km/h 14mph /  22.5km/h 92% 0.02in /  0.5mm 0 W/m2
03:18 52.2 °F /  11.2 °C 49.8 °F /  9.9 °C 29.7in /  1006.8hPa WSW 0.9mph /  1.4km/h 10mph /  16.1km/h 92% 0.02in /  0.5mm 0 W/m2
03:23 52.2 °F /  11.2 °C 49.8 °F /  9.9 °C 29.7in /  1006.8hPa South 0.9mph /  1.4km/h 7mph /  11.3km/h 92% 0.01in /  0.2mm 0 W/m2
03:28 52 °F /  11.1 °C 49.6 °F /  9.8 °C 29.7in /  1006.4hPa NW 2.9mph /  4.7km/h 7mph /  11.3km/h 92% 0.01in /  0.2mm 0 W/m2
03:33 52 °F /  11.1 °C 49.6 °F /  9.8 °C 29.7in /  1006.8hPa WSW 0.9mph /  1.4km/h 7mph /  11.3km/h 92% 0.01in /  0.2mm 0 W/m2
03:38 52 °F /  11.1 °C 49.6 °F /  9.8 °C 29.7in /  1006.8hPa NW 2.9mph /  4.7km/h 4mph /  6.4km/h 92% 0.01in /  0.2mm 0 W/m2
03:43 52 °F /  11.1 °C 49.6 °F /  9.8 °C 29.7in /  1006.8hPa North 2.9mph /  4.7km/h 9mph /  14.5km/h 92% 0.01in /  0.2mm 0 W/m2
03:48 52 °F /  11.1 °C 49.6 °F /  9.8 °C 29.7in /  1006.8hPa SSW 4.9mph /  7.9km/h 7mph /  11.3km/h 92% 0.01in /  0.2mm 0 W/m2
03:53 52 °F /  11.1 °C 49.6 °F /  9.8 °C 29.7in /  1006.8hPa West 0.9mph /  1.4km/h 2mph /  3.2km/h 92% 0in /  0.0mm 0 W/m2
03:58 52.2 °F /  11.2 °C 49.8 °F /  9.9 °C 29.7in /  1006.8hPa NNW 2mph /  3.2km/h 8mph /  12.9km/h 92% 0in /  0.0mm 0 W/m2
04:03 52.2 °F /  11.2 °C 49.8 °F /  9.9 °C 29.7in /  1007.1hPa Calm   2mph /  3.2km/h 92% 0in /  0.0mm 0 W/m2
04:08 52.2 °F /  11.2 °C 49.8 °F /  9.9 °C 29.7in /  1007.1hPa North 2mph /  3.2km/h 7mph /  11.3km/h 92% 0in /  0.0mm 0 W/m2
04:13 52.2 °F /  11.2 °C 49.8 °F /  9.9 °C 29.7in /  1007.1hPa NW 2.9mph /  4.7km/h 4mph /  6.4km/h 92% 0in /  0.0mm 0 W/m2
04:19 52.2 °F /  11.2 °C 49.8 °F /  9.9 °C 29.7in /  1007.1hPa WNW 4mph /  6.4km/h 9mph /  14.5km/h 92% 0in /  0.0mm 0 W/m2
04:24 52.2 °F /  11.2 °C 49.8 °F /  9.9 °C 29.8in /  1007.5hPa SW 2.9mph /  4.7km/h 7mph /  11.3km/h 92% 0in /  0.0mm 0 W/m2
04:29 52.2 °F /  11.2 °C 49.8 °F /  9.9 °C 29.7in /  1007.1hPa WNW 6mph /  9.7km/h 9mph /  14.5km/h 92% 0in /  0.0mm 0 W/m2
04:34 52.2 °F /  11.2 °C 49.8 °F /  9.9 °C 29.8in /  1007.5hPa WNW 2.9mph /  4.7km/h 7mph /  11.3km/h 92% 0in /  0.0mm 0 W/m2
04:39 52.2 °F /  11.2 °C 49.8 °F /  9.9 °C 29.8in /  1007.5hPa NW 4.9mph /  7.9km/h 5mph /  8km/h 92% 0in /  0.0mm 0 W/m2
04:44 52.2 °F /  11.2 °C 49.8 °F /  9.9 °C 29.8in /  1007.5hPa WSW 10.1mph /  16.3km/h 10mph /  16.1km/h 92% 0in /  0.0mm 0 W/m2
04:49 52.2 °F /  11.2 °C 49.8 °F /  9.9 °C 29.8in /  1007.5hPa NW 8.1mph /  13km/h 12mph /  19.3km/h 92% 0in /  0.0mm 0 W/m2
04:54 52.2 °F /  11.2 °C 49.8 °F /  9.9 °C 29.8in /  1007.5hPa WNW 6.9mph /  11.1km/h 9mph /  14.5km/h 92% 0in /  0.0mm 0 W/m2
04:59 52.2 °F /  11.2 °C 49.8 °F /  9.9 °C 29.8in /  1007.8hPa West 2.9mph /  4.7km/h 13mph /  20.9km/h 92% 0in /  0.0mm 0 W/m2
05:04 52.2 °F /  11.2 °C 49.8 °F /  9.9 °C 29.8in /  1007.8hPa WNW 4.9mph /  7.9km/h 5mph /  8km/h 92% 0in /  0.0mm 0 W/m2
05:09 52.2 °F /  11.2 °C 50.2 °F /  10.1 °C 29.8in /  1007.5hPa West 2.9mph /  4.7km/h 13mph /  20.9km/h 93% 0in /  0.0mm 0 W/m2
05:14 52.2 °F /  11.2 °C 50.2 °F /  10.1 °C 29.8in /  1007.5hPa WNW 2.9mph /  4.7km/h 8mph /  12.9km/h 93% 0in /  0.0mm 0 W/m2
05:19 52.2 °F /  11.2 °C 50.2 °F /  10.1 °C 29.8in /  1007.8hPa WNW 4mph /  6.4km/h 8mph /  12.9km/h 93% 0in /  0.0mm 0 W/m2
05:24 52.2 °F /  11.2 °C 50.2 °F /  10.1 °C 29.8in /  1007.8hPa West 6mph /  9.7km/h 12mph /  19.3km/h 93% 0in /  0.0mm 0 W/m2
05:29 52.2 °F /  11.2 °C 50.2 °F /  10.1 °C 29.8in /  1007.8hPa WSW 4.9mph /  7.9km/h 10mph /  16.1km/h 93% 0in /  0.0mm 0 W/m2
05:34 52.2 °F /  11.2 °C 50.2 °F /  10.1 °C 29.8in /  1007.8hPa Calm   12mph /  19.3km/h 93% 0in /  0.0mm 0 W/m2
05:39 52.2 °F /  11.2 °C 50.2 °F /  10.1 °C 29.8in /  1008.1hPa NW 2.9mph /  4.7km/h 7mph /  11.3km/h 93% 0.01in /  0.2mm 0 W/m2
05:44 52 °F /  11.1 °C 50 °F /  10 °C 29.8in /  1008.1hPa West 4mph /  6.4km/h 11mph /  17.7km/h 93% 0.02in /  0.5mm 0 W/m2
05:49 52 °F /  11.1 °C 50 °F /  10 °C 29.8in /  1008.1hPa Calm   5mph /  8km/h 93% 0.02in /  0.5mm 0 W/m2
05:54 52 °F /  11.1 °C 50 °F /  10 °C 29.8in /  1008.1hPa WSW 2.9mph /  4.7km/h 12mph /  19.3km/h 93% 0.02in /  0.5mm 0 W/m2
05:59 52 °F /  11.1 °C 50 °F /  10 °C 29.8in /  1008.1hPa WSW 4mph /  6.4km/h 9mph /  14.5km/h 93% 0.02in /  0.5mm 0 W/m2
06:04 52 °F /  11.1 °C 50 °F /  10 °C 29.8in /  1008.1hPa SW 4.9mph /  7.9km/h 12mph /  19.3km/h 93% 0.03in /  0.8mm 0 W/m2
06:09 51.8 °F /  11 °C 49.8 °F /  9.9 °C 29.8in /  1008.5hPa WNW 10.1mph /  16.3km/h 10mph /  16.1km/h 93% 0.03in /  0.8mm 0 W/m2
06:14 52 °F /  11.1 °C 50 °F /  10 °C 29.8in /  1008.5hPa WSW 2mph /  3.2km/h 9mph /  14.5km/h 93% 0.04in /  1.0mm 0 W/m2
06:19 51.8 °F /  11 °C 49.8 °F /  9.9 °C 29.8in /  1008.5hPa West 2.9mph /  4.7km/h 9mph /  14.5km/h 93% 0.06in /  1.5mm 0 W/m2
06:24 51.6 °F /  10.9 °C 49.6 °F /  9.8 °C 29.8in /  1008.5hPa SW 6mph /  9.7km/h 10mph /  16.1km/h 93% 0.06in /  1.5mm 0 W/m2
06:29 51.6 °F /  10.9 °C 49.6 °F /  9.8 °C 29.8in /  1008.5hPa West 2.9mph /  4.7km/h 8mph /  12.9km/h 93% 0.08in /  2.0mm 0 W/m2
06:34 51.6 °F /  10.9 °C 50 °F /  10 °C 29.8in /  1008.8hPa WNW 8.9mph /  14.3km/h 12mph /  19.3km/h 94% 0.09in /  2.3mm 0 W/m2
06:39 51.6 °F /  10.9 °C 50 °F /  10 °C 29.8in /  1008.8hPa West 2.9mph /  4.7km/h 9mph /  14.5km/h 94% 0.09in /  2.3mm 0 W/m2
06:44 51.4 °F /  10.8 °C 49.8 °F /  9.9 °C 29.8in /  1008.8hPa West 6.9mph /  11.1km/h 10mph /  16.1km/h 94% 0.09in /  2.3mm 0 W/m2
06:49 51.4 °F /  10.8 °C 49.8 °F /  9.9 °C 29.8in /  1009.1hPa WNW 4.9mph /  7.9km/h 12mph /  19.3km/h 94% 0.09in /  2.3mm 0 W/m2
06:54 51.4 °F /  10.8 °C 49.8 °F /  9.9 °C 29.8in /  1009.1hPa West 2.9mph /  4.7km/h 8mph /  12.9km/h 94% 0.09in /  2.3mm 0 W/m2
06:59 51.4 °F /  10.8 °C 49.8 °F /  9.9 °C 29.8in /  1009.1hPa SW 6.9mph /  11.1km/h 11mph /  17.7km/h 94% 0.09in /  2.3mm 0 W/m2
07:04 51.4 °F /  10.8 °C 49.5 °F /  9.7 °C 29.8in /  1009.1hPa West 8.1mph /  13km/h 11mph /  17.7km/h 93% 0.08in /  2.0mm 0 W/m2
07:09 51.4 °F /  10.8 °C 49.5 °F /  9.7 °C 29.8in /  1009.5hPa WSW 8.1mph /  13km/h 9mph /  14.5km/h 93% 0.08in /  2.0mm 0 W/m2
07:14 51.3 °F /  10.7 °C 49.3 °F /  9.6 °C 29.8in /  1009.5hPa WSW 2mph /  3.2km/h 12mph /  19.3km/h 93% 0.07in /  1.8mm 0 W/m2
07:19 51.3 °F /  10.7 °C 49.3 °F /  9.6 °C 29.8in /  1009.5hPa WNW 8.9mph /  14.3km/h 9mph /  14.5km/h 93% 0.06in /  1.5mm 0 W/m2
07:24 51.4 °F /  10.8 °C 49.5 °F /  9.7 °C 29.8in /  1009.5hPa SW 6mph /  9.7km/h 12mph /  19.3km/h 93% 0.05in /  1.3mm 0 W/m2
07:29 51.3 °F /  10.7 °C 49.3 °F /  9.6 °C 29.8in /  1009.8hPa WNW 2.9mph /  4.7km/h 7mph /  11.3km/h 93% 0.03in /  0.8mm 0 W/m2
07:34 51.3 °F /  10.7 °C 49.6 °F /  9.8 °C 29.8in /  1009.8hPa West 2.9mph /  4.7km/h 10mph /  16.1km/h 94% 0.02in /  0.5mm 0 W/m2
07:39 51.4 °F /  10.8 °C 49.8 °F /  9.9 °C 29.8in /  1009.8hPa West 0.9mph /  1.4km/h 8mph /  12.9km/h 94% 0.02in /  0.5mm 0 W/m2
07:44 51.4 °F /  10.8 °C 49.8 °F /  9.9 °C 29.8in /  1009.8hPa NNW 4mph /  6.4km/h   94% 0.01in /  0.2mm 0 W/m2
07:49 51.4 °F /  10.8 °C 49.8 °F /  9.9 °C 29.8in /  1009.8hPa SW 2.9mph /  4.7km/h 8mph /  12.9km/h 94% 0.01in /  0.2mm 0 W/m2
07:54 51.4 °F /  10.8 °C 49.8 °F /  9.9 °C 29.8in /  1010.2hPa NW 2.9mph /  4.7km/h 7mph /  11.3km/h 94% 0.01in /  0.2mm 5 W/m2
07:59 51.4 °F /  10.8 °C 49.8 °F /  9.9 °C 29.8in /  1010.2hPa West 6.9mph /  11.1km/h 8mph /  12.9km/h 94% 0in /  0.0mm 7 W/m2
08:04 51.4 °F /  10.8 °C 49.8 °F /  9.9 °C 29.8in /  1010.2hPa WNW 2mph /  3.2km/h 9mph /  14.5km/h 94% 0in /  0.0mm 9 W/m2
08:09 51.6 °F /  10.9 °C 50 °F /  10 °C 29.8in /  1010.2hPa WNW 4mph /  6.4km/h 9mph /  14.5km/h 94% 0in /  0.0mm 12 W/m2
08:14 51.6 °F /  10.9 °C 50 °F /  10 °C 29.8in /  1010.2hPa WNW 6.9mph /  11.1km/h 9mph /  14.5km/h 94% 0in /  0.0mm 12 W/m2
08:19 51.6 °F /  10.9 °C 50 °F /  10 °C 29.8in /  1010.2hPa West 4mph /  6.4km/h 11mph /  17.7km/h 94% 0in /  0.0mm 16 W/m2
08:24 51.6 °F /  10.9 °C 50 °F /  10 °C 29.8in /  1010.5hPa West 2.9mph /  4.7km/h 12mph /  19.3km/h 94% 0in /  0.0mm 23 W/m2
08:29 51.6 °F /  10.9 °C 49.6 °F /  9.8 °C 29.8in /  1010.5hPa West 4mph /  6.4km/h 11mph /  17.7km/h 93% 0in /  0.0mm 32 W/m2
08:34 51.6 °F /  10.9 °C 50 °F /  10 °C 29.9in /  1010.8hPa West 6mph /  9.7km/h 12mph /  19.3km/h 94% 0in /  0.0mm 86 W/m2
08:39 51.8 °F /  11 °C 50.2 °F /  10.1 °C 29.9in /  1010.8hPa West 4mph /  6.4km/h 13mph /  20.9km/h 94% 0in /  0.0mm 58 W/m2
08:44 52 °F /  11.1 °C 50 °F /  10 °C 29.9in /  1010.8hPa WSW 6mph /  9.7km/h 9mph /  14.5km/h 93% 0in /  0.0mm 63 W/m2
08:49 52.2 °F /  11.2 °C 50.2 °F /  10.1 °C 29.9in /  1010.8hPa NNW 4.9mph /  7.9km/h 12mph /  19.3km/h 93% 0in /  0.0mm 62 W/m2
08:54 52.2 °F /  11.2 °C 50.5 °F /  10.3 °C 29.9in /  1011.2hPa West 6mph /  9.7km/h 9mph /  14.5km/h 94% 0in /  0.0mm 79 W/m2
08:59 52.2 °F /  11.2 °C 50.2 °F /  10.1 °C 29.9in /  1011.2hPa West 6mph /  9.7km/h 8mph /  12.9km/h 93% 0in /  0.0mm 49 W/m2
09:04 52.3 °F /  11.3 °C 50.4 °F /  10.2 °C 29.9in /  1011.2hPa WNW 2.9mph /  4.7km/h 8mph /  12.9km/h 93% 0in /  0.0mm 42 W/m2
09:09 52.3 °F /  11.3 °C 50.4 °F /  10.2 °C 29.9in /  1011.5hPa West 8.9mph /  14.3km/h 10mph /  16.1km/h 93% 0in /  0.0mm 60 W/m2
09:14 52.2 °F /  11.2 °C 50.2 °F /  10.1 °C 29.9in /  1011.5hPa West 4mph /  6.4km/h 7mph /  11.3km/h 93% 0in /  0.0mm 60 W/m2
09:19 52.3 °F /  11.3 °C 50.4 °F /  10.2 °C 29.9in /  1011.5hPa West 6mph /  9.7km/h 12mph /  19.3km/h 93% 0in /  0.0mm 111 W/m2
09:24 52.3 °F /  11.3 °C 50.4 °F /  10.2 °C 29.9in /  1011.9hPa West 4mph /  6.4km/h 13mph /  20.9km/h 93% 0in /  0.0mm 77 W/m2
09:29 52.5 °F /  11.4 °C 50.5 °F /  10.3 °C 29.9in /  1011.9hPa WSW 8.1mph /  13km/h 10mph /  16.1km/h 93% 0in /  0.0mm 262 W/m2
09:34 52.9 °F /  11.6 °C 50.9 °F /  10.5 °C 29.9in /  1011.9hPa West 4mph /  6.4km/h 12mph /  19.3km/h 93% 0in /  0.0mm 86 W/m2
09:39 52.9 °F /  11.6 °C 50.9 °F /  10.5 °C 29.9in /  1011.9hPa WNW 8.1mph /  13km/h 9mph /  14.5km/h 93% 0in /  0.0mm 79 W/m2
09:44 53.1 °F /  11.7 °C 51.1 °F /  10.6 °C 29.9in /  1011.9hPa WNW 4mph /  6.4km/h 14mph /  22.5km/h 93% 0in /  0.0mm 357 W/m2
09:49 53.2 °F /  11.8 °C 51.3 °F /  10.7 °C 29.9in /  1011.9hPa WNW 4mph /  6.4km/h 10mph /  16.1km/h 93% 0in /  0.0mm 93 W/m2
09:54 53.2 °F /  11.8 °C 51.3 °F /  10.7 °C 29.9in /  1011.9hPa WNW 8.1mph /  13km/h 14mph /  22.5km/h 93% 0in /  0.0mm 93 W/m2
09:59 53.2 °F /  11.8 °C 51.3 °F /  10.7 °C 29.9in /  1012.2hPa West 2.9mph /  4.7km/h 15mph /  24.1km/h 93% 0in /  0.0mm 420 W/m2
10:04 53.6 °F /  12 °C 51.3 °F /  10.7 °C 29.9in /  1012.2hPa West 8.9mph /  14.3km/h 13mph /  20.9km/h 92% 0in /  0.0mm 113 W/m2
10:09 53.8 °F /  12.1 °C 51.3 °F /  10.7 °C 29.9in /  1012.2hPa West 8.1mph /  13km/h 13mph /  20.9km/h 91% 0in /  0.0mm 200 W/m2
10:14 53.8 °F /  12.1 °C 51.3 °F /  10.7 °C 29.9in /  1012.5hPa West 8.9mph /  14.3km/h 9mph /  14.5km/h 91% 0in /  0.0mm 98 W/m2
10:19 54 °F /  12.2 °C 51.4 °F /  10.8 °C 29.9in /  1012.5hPa WNW 4.9mph /  7.9km/h 8mph /  12.9km/h 91% 0in /  0.0mm 128 W/m2
10:24 54.1 °F /  12.3 °C 51.3 °F /  10.7 °C 29.9in /  1012.5hPa WSW 10.1mph /  16.3km/h 12mph /  19.3km/h 90% 0in /  0.0mm 381 W/m2
10:29 54.3 °F /  12.4 °C 51.1 °F /  10.6 °C 29.9in /  1012.9hPa WNW 8.9mph /  14.3km/h 10mph /  16.1km/h 89% 0in /  0.0mm 350 W/m2
10:34 54.3 °F /  12.4 °C 50.9 °F /  10.5 °C 29.9in /  1012.9hPa WSW 6.9mph /  11.1km/h 11mph /  17.7km/h 88% 0in /  0.0mm 392 W/m2
10:40 54.3 °F /  12.4 °C 50.9 °F /  10.5 °C 29.9in /  1012.9hPa West 6mph /  9.7km/h 13mph /  20.9km/h 88% 0in /  0.0mm 376 W/m2
10:45 54.3 °F /  12.4 °C 50.5 °F /  10.3 °C 29.9in /  1012.9hPa West 6mph /  9.7km/h 16mph /  25.7km/h 87% 0in /  0.0mm 404 W/m2
10:50 54.3 °F /  12.4 °C 50.5 °F /  10.3 °C 29.9in /  1012.9hPa West 10.1mph /  16.3km/h 11mph /  17.7km/h 87% 0in /  0.0mm 367 W/m2
10:55 54.3 °F /  12.4 °C 50.5 °F /  10.3 °C 29.9in /  1012.9hPa NW 4mph /  6.4km/h 12mph /  19.3km/h 87% 0in /  0.0mm 383 W/m2
11:00 54.9 °F /  12.7 °C 51.1 °F /  10.6 °C 29.9in /  1013.2hPa West 4mph /  6.4km/h 10mph /  16.1km/h 87% 0in /  0.0mm 473 W/m2
11:05 55.2 °F /  12.9 °C 51.1 °F /  10.6 °C 29.9in /  1012.9hPa West 8.1mph /  13km/h 9mph /  14.5km/h 86% 0in /  0.0mm 476 W/m2
11:10 55.6 °F /  13.1 °C 51.4 °F /  10.8 °C 29.9in /  1013.2hPa WSW 15mph /  24.1km/h 15mph /  24.1km/h 86% 0in /  0.0mm 559 W/m2
11:15 55.8 °F /  13.2 °C 51.1 °F /  10.6 °C 29.9in /  1013.2hPa NW 8.1mph /  13km/h 10mph /  16.1km/h 84% 0in /  0.0mm 116 W/m2
11:20 55.6 °F /  13.1 °C 50.9 °F /  10.5 °C 29.9in /  1013.2hPa WNW 15mph /  24.1km/h 15mph /  24.1km/h 84% 0in /  0.0mm 403 W/m2
11:25 55.6 °F /  13.1 °C 50.9 °F /  10.5 °C 29.9in /  1013.5hPa NW 8.9mph /  14.3km/h 9mph /  14.5km/h 84% 0in /  0.0mm 169 W/m2
11:30 55.6 °F /  13.1 °C 51.1 °F /  10.6 °C 29.9in /  1013.5hPa West 2.9mph /  4.7km/h 12mph /  19.3km/h 85% 0in /  0.0mm 285 W/m2
11:35 55.4 °F /  13 °C 50.7 °F /  10.4 °C 29.9in /  1013.5hPa WNW 4.9mph /  7.9km/h 11mph /  17.7km/h 84% 0in /  0.0mm 105 W/m2
11:40 55.4 °F /  13 °C 50.9 °F /  10.5 °C 29.9in /  1013.5hPa SW 4.9mph /  7.9km/h 12mph /  19.3km/h 85% 0in /  0.0mm 123 W/m2
11:45 55.4 °F /  13 °C 50.9 °F /  10.5 °C 29.9in /  1013.5hPa West 10.1mph /  16.3km/h 11mph /  17.7km/h 85% 0in /  0.0mm 274 W/m2
11:50 55.8 °F /  13.2 °C 51.3 °F /  10.7 °C 29.9in /  1013.9hPa SW 6mph /  9.7km/h 12mph /  19.3km/h 85% 0in /  0.0mm 123 W/m2
11:55 55.6 °F /  13.1 °C 51.4 °F /  10.8 °C 29.9in /  1013.9hPa West 6mph /  9.7km/h 8mph /  12.9km/h 86% 0in /  0.0mm 176 W/m2
12:00 55.4 °F /  13 °C 51.6 °F /  10.9 °C 29.9in /  1013.9hPa West 4mph /  6.4km/h 10mph /  16.1km/h 87% 0in /  0.0mm 366 W/m2
12:05 55.4 °F /  13 °C 51.6 °F /  10.9 °C 29.9in /  1013.9hPa WNW 6.9mph /  11.1km/h 7mph /  11.3km/h 87% 0in /  0.0mm 246 W/m2
12:10 55.6 °F /  13.1 °C 51.8 °F /  11 °C 29.9in /  1013.9hPa WSW 2.9mph /  4.7km/h 6mph /  9.7km/h 87% 0in /  0.0mm 206 W/m2
12:15 55.8 °F /  13.2 °C 52 °F /  11.1 °C 30in /  1014.2hPa WSW 4mph /  6.4km/h 10mph /  16.1km/h 87% 0in /  0.0mm 125 W/m2
12:20 55.6 °F /  13.1 °C 51.8 °F /  11 °C 30in /  1014.2hPa West 2.9mph /  4.7km/h 6mph /  9.7km/h 87% 0in /  0.0mm 63 W/m2
12:25 55.2 °F /  12.9 °C 51.8 °F /  11 °C 30in /  1014.2hPa WSW 2.9mph /  4.7km/h 4mph /  6.4km/h 88% 0.03in /  0.8mm 62 W/m2
12:30 54.9 °F /  12.7 °C 51.6 °F /  10.9 °C 30in /  1014.2hPa West 2mph /  3.2km/h 6mph /  9.7km/h 89% 0.04in /  1.0mm 163 W/m2
12:35 54.7 °F /  12.6 °C 51.8 °F /  11 °C 30in /  1014.2hPa West 0.9mph /  1.4km/h 8mph /  12.9km/h 90% 0.04in /  1.0mm 225 W/m2
12:40 54.9 °F /  12.7 °C 52.3 °F /  11.3 °C 30in /  1014.2hPa NNW 4mph /  6.4km/h 9mph /  14.5km/h 91% 0.04in /  1.0mm 229 W/m2
12:45 55 °F /  12.8 °C 52.5 °F /  11.4 °C 30in /  1014.2hPa West 4mph /  6.4km/h 4mph /  6.4km/h 91% 0.04in /  1.0mm 239 W/m2
12:50 55.2 °F /  12.9 °C 52.3 °F /  11.3 °C 30in /  1014.2hPa WNW 8.1mph /  13km/h 8mph /  12.9km/h 90% 0.04in /  1.0mm 206 W/m2
12:55 55.8 °F /  13.2 °C 52.5 °F /  11.4 °C 30in /  1014.2hPa West 10.1mph /  16.3km/h 11mph /  17.7km/h 89% 0.04in /  1.0mm 610 W/m2
13:00 56.5 °F /  13.6 °C 53.2 °F /  11.8 °C 30in /  1014.2hPa SW 6.9mph /  11.1km/h 8mph /  12.9km/h 89% 0.04in /  1.0mm 466 W/m2
13:05 56.7 °F /  13.7 °C 52.9 °F /  11.6 °C 30in /  1014.2hPa WNW 4.9mph /  7.9km/h 8mph /  12.9km/h 87% 0.04in /  1.0mm 350 W/m2
13:10 56.8 °F /  13.8 °C 53.1 °F /  11.7 °C 30in /  1014.2hPa SW 4.9mph /  7.9km/h 11mph /  17.7km/h 87% 0.04in /  1.0mm 548 W/m2
13:15 57 °F /  13.9 °C 52.5 °F /  11.4 °C 30in /  1014.6hPa WNW 4.9mph /  7.9km/h 12mph /  19.3km/h 85% 0.04in /  1.0mm 276 W/m2
13:20 57 °F /  13.9 °C 52.2 °F /  11.2 °C 30in /  1014.6hPa NW 13mph /  20.9km/h 14mph /  22.5km/h 84% 0.04in /  1.0mm 288 W/m2
13:25 57.2 °F /  14 °C 52.3 °F /  11.3 °C 30in /  1014.6hPa WSW 8.1mph /  13km/h 12mph /  19.3km/h 84% 0.01in /  0.2mm 371 W/m2
13:30 57.4 °F /  14.1 °C 52 °F /  11.1 °C 30in /  1014.6hPa West 11mph /  17.7km/h 13mph /  20.9km/h 82% 0in /  0.0mm 262 W/m2
13:35 57.4 °F /  14.1 °C 52.3 °F /  11.3 °C 30in /  1014.6hPa WSW 4.9mph /  7.9km/h 5mph /  8km/h 83% 0in /  0.0mm 301 W/m2
13:40 57.4 °F /  14.1 °C 52.3 °F /  11.3 °C 30in /  1014.6hPa West 6mph /  9.7km/h 11mph /  17.7km/h 83% 0in /  0.0mm 350 W/m2
13:45 57.4 °F /  14.1 °C 52.5 °F /  11.4 °C 30in /  1014.6hPa West 6mph /  9.7km/h 9mph /  14.5km/h 84% 0in /  0.0mm 279 W/m2
13:50 57.2 °F /  14 °C 52.3 °F /  11.3 °C 30in /  1014.6hPa West 2.9mph /  4.7km/h 11mph /  17.7km/h 84% 0in /  0.0mm 156 W/m2
13:55 56.8 °F /  13.8 °C 52.3 °F /  11.3 °C 30in /  1014.9hPa WSW 4.9mph /  7.9km/h 10mph /  16.1km/h 85% 0in /  0.0mm 304 W/m2
14:00 56.8 °F /  13.8 °C 52 °F /  11.1 °C 30in /  1014.6hPa NW 4.9mph /  7.9km/h 11mph /  17.7km/h 84% 0in /  0.0mm 218 W/m2
14:05 56.8 °F /  13.8 °C 52 °F /  11.1 °C 30in /  1014.9hPa West 4mph /  6.4km/h 11mph /  17.7km/h 84% 0in /  0.0mm 258 W/m2
14:10 56.8 °F /  13.8 °C 52.3 °F /  11.3 °C 30in /  1014.9hPa NW 2.9mph /  4.7km/h 7mph /  11.3km/h 85% 0in /  0.0mm 188 W/m2
14:15 56.8 °F /  13.8 °C 52.3 °F /  11.3 °C 30in /  1014.9hPa WNW 4mph /  6.4km/h 7mph /  11.3km/h 85% 0in /  0.0mm 91 W/m2
14:20 56.8 °F /  13.8 °C 52.3 °F /  11.3 °C 30in /  1014.9hPa WNW 6.9mph /  11.1km/h 8mph /  12.9km/h 85% 0in /  0.0mm 72 W/m2
14:25 56.7 °F /  13.7 °C 51.8 °F /  11 °C 30in /  1014.9hPa West 4mph /  6.4km/h 10mph /  16.1km/h 84% 0in /  0.0mm 181 W/m2
14:30 56.8 °F /  13.8 °C 51.8 °F /  11 °C 30in /  1014.9hPa WSW 2.9mph /  4.7km/h 6mph /  9.7km/h 83% 0in /  0.0mm 125 W/m2
14:35 57.2 °F /  14 °C 51.1 °F /  10.6 °C 30in /  1014.9hPa West 4mph /  6.4km/h 14mph /  22.5km/h 80% 0in /  0.0mm 56 W/m2
14:40 57.7 °F /  14.3 °C 50.9 °F /  10.5 °C 30in /  1014.9hPa WNW 2.9mph /  4.7km/h 10mph /  16.1km/h 78% 0in /  0.0mm 53 W/m2
14:45 58.1 °F /  14.5 °C 50.2 °F /  10.1 °C 30in /  1014.9hPa NW 2mph /  3.2km/h 14mph /  22.5km/h 75% 0in /  0.0mm 84 W/m2
14:50 58.5 °F /  14.7 °C 50.9 °F /  10.5 °C 30in /  1014.9hPa NW 2mph /  3.2km/h 4mph /  6.4km/h 76% 0in /  0.0mm 77 W/m2
14:55 58.5 °F /  14.7 °C 50.5 °F /  10.3 °C 30in /  1015.2hPa NW 12.1mph /  19.5km/h 17mph /  27.4km/h 75% 0in /  0.0mm 107 W/m2
15:00 57.9 °F /  14.4 °C 50 °F /  10 °C 30in /  1015.2hPa West 8.9mph /  14.3km/h 15mph /  24.1km/h 75% 0in /  0.0mm 134 W/m2
15:05 57.6 °F /  14.2 °C 50.4 °F /  10.2 °C 30in /  1015.2hPa West 2mph /  3.2km/h 17mph /  27.4km/h 77% 0in /  0.0mm 192 W/m2
15:10 57.7 °F /  14.3 °C 50.9 °F /  10.5 °C 30in /  1015.2hPa WNW 2.9mph /  4.7km/h 8mph /  12.9km/h 78% 0in /  0.0mm 118 W/m2
15:15 57.9 °F /  14.4 °C 51.1 °F /  10.6 °C 30in /  1015.2hPa West 2mph /  3.2km/h 8mph /  12.9km/h 78% 0in /  0.0mm 524 W/m2
15:20 58.3 °F /  14.6 °C 50.7 °F /  10.4 °C 30in /  1015.2hPa NW 10.1mph /  16.3km/h 13mph /  20.9km/h 76% 0in /  0.0mm 512 W/m2
15:25 58.5 °F /  14.7 °C 50.9 °F /  10.5 °C 30in /  1015.2hPa WSW 2.9mph /  4.7km/h 12mph /  19.3km/h 76% 0in /  0.0mm 501 W/m2
15:30 58.6 °F /  14.8 °C 51.1 °F /  10.6 °C 30in /  1015.2hPa WNW 2.9mph /  4.7km/h 10mph /  16.1km/h 76% 0in /  0.0mm 496 W/m2
15:35 58.8 °F /  14.9 °C 50.9 °F /  10.5 °C 30in /  1015.2hPa WNW 8.9mph /  14.3km/h 12mph /  19.3km/h 75% 0in /  0.0mm 487 W/m2
15:40 59.2 °F /  15.1 °C 50.5 °F /  10.3 °C 30in /  1015.2hPa WNW 4mph /  6.4km/h 13mph /  20.9km/h 73% 0in /  0.0mm 483 W/m2
15:45 59.5 °F /  15.3 °C 51.3 °F /  10.7 °C 30in /  1015.2hPa WSW 8.9mph /  14.3km/h 12mph /  19.3km/h 74% 0in /  0.0mm 476 W/m2
15:50 59.7 °F /  15.4 °C 50.7 °F /  10.4 °C 30in /  1015.2hPa WSW 4mph /  6.4km/h 9mph /  14.5km/h 72% 0in /  0.0mm 482 W/m2
15:55 60.1 °F /  15.6 °C 51.1 °F /  10.6 °C 30in /  1015.2hPa WSW 2.9mph /  4.7km/h 13mph /  20.9km/h 72% 0in /  0.0mm 455 W/m2
16:00 60.1 °F /  15.6 °C 51.1 °F /  10.6 °C 30in /  1015.2hPa WNW 4.9mph /  7.9km/h 12mph /  19.3km/h 72% 0in /  0.0mm 350 W/m2
16:05 59.5 °F /  15.3 °C 50.2 °F /  10.1 °C 30in /  1015.6hPa SSW 8.9mph /  14.3km/h 14mph /  22.5km/h 71% 0in /  0.0mm 200 W/m2
16:10 59.4 °F /  15.2 °C 50 °F /  10 °C 30in /  1015.2hPa NNW 2.9mph /  4.7km/h 11mph /  17.7km/h 71% 0in /  0.0mm 536 W/m2
16:15 59.5 °F /  15.3 °C 50.2 °F /  10.1 °C 30in /  1015.6hPa West 6mph /  9.7km/h 10mph /  16.1km/h 71% 0in /  0.0mm 508 W/m2
16:20 59.5 °F /  15.3 °C 50.9 °F /  10.5 °C 30in /  1015.2hPa NW 2.9mph /  4.7km/h 7mph /  11.3km/h 73% 0in /  0.0mm 146 W/m2
16:25 59.5 °F /  15.3 °C 50.9 °F /  10.5 °C 30in /  1015.6hPa WNW 2mph /  3.2km/h 7mph /  11.3km/h 73% 0in /  0.0mm 109 W/m2
16:30 59.2 °F /  15.1 °C 50.5 °F /  10.3 °C 30in /  1015.6hPa West 6.9mph /  11.1km/h 8mph /  12.9km/h 73% 0in /  0.0mm 111 W/m2
16:35 58.6 °F /  14.8 °C 50.4 °F /  10.2 °C 30in /  1015.9hPa NW 8.1mph /  13km/h 8mph /  12.9km/h 74% 0in /  0.0mm 137 W/m2
16:40 58.5 °F /  14.7 °C 50.5 °F /  10.3 °C 30in /  1015.9hPa West 6.9mph /  11.1km/h 7mph /  11.3km/h 75% 0in /  0.0mm 109 W/m2
16:45 58.1 °F /  14.5 °C 50.2 °F /  10.1 °C 30in /  1015.9hPa WNW 2mph /  3.2km/h 9mph /  14.5km/h 75% 0in /  0.0mm 84 W/m2
16:50 58.1 °F /  14.5 °C 50.5 °F /  10.3 °C 30in /  1015.9hPa West 4mph /  6.4km/h 8mph /  12.9km/h 76% 0in /  0.0mm 84 W/m2
16:55 57.9 °F /  14.4 °C 50 °F /  10 °C 30in /  1016.3hPa WNW 6.9mph /  11.1km/h 13mph /  20.9km/h 75% 0in /  0.0mm 83 W/m2
17:00 57.7 °F /  14.3 °C 50.2 °F /  10.1 °C 30in /  1016.3hPa West 2.9mph /  4.7km/h 8mph /  12.9km/h 76% 0in /  0.0mm 93 W/m2
17:05 57.7 °F /  14.3 °C 49.8 °F /  9.9 °C 30in /  1016.3hPa SW 4.9mph /  7.9km/h 11mph /  17.7km/h 75% 0in /  0.0mm 125 W/m2
17:10 57.6 °F /  14.2 °C 50 °F /  10 °C 30in /  1016.3hPa WSW 8.1mph /  13km/h 8mph /  12.9km/h 76% 0in /  0.0mm 76 W/m2
17:15 57.6 °F /  14.2 °C 50.4 °F /  10.2 °C 30in /  1016.3hPa West 6.9mph /  11.1km/h 9mph /  14.5km/h 77% 0in /  0.0mm 70 W/m2
17:21 57.4 °F /  14.1 °C 50.5 °F /  10.3 °C 30in /  1016.3hPa WSW 4.9mph /  7.9km/h 10mph /  16.1km/h 78% 0in /  0.0mm 56 W/m2
17:26 57.2 °F /  14 °C 50.4 °F /  10.2 °C 30in /  1016.3hPa WSW 4mph /  6.4km/h 10mph /  16.1km/h 78% 0in /  0.0mm 47 W/m2
17:31 57 °F /  13.9 °C 50.2 °F /  10.1 °C 30in /  1016.6hPa West 4mph /  6.4km/h 11mph /  17.7km/h 78% 0in /  0.0mm 42 W/m2
17:36 56.8 °F /  13.8 °C 50.4 °F /  10.2 °C 30in /  1016.6hPa West 4mph /  6.4km/h 6mph /  9.7km/h 79% 0in /  0.0mm 46 W/m2
17:41 56.8 °F /  13.8 °C 50.4 °F /  10.2 °C 30in /  1016.6hPa West 4mph /  6.4km/h 14mph /  22.5km/h 79% 0in /  0.0mm 46 W/m2
17:46 56.8 °F /  13.8 °C 50.7 °F /  10.4 °C 30in /  1016.6hPa West 2.9mph /  4.7km/h 7mph /  11.3km/h 80% 0in /  0.0mm 58 W/m2
17:51 56.7 °F /  13.7 °C 50.5 °F /  10.3 °C 30in /  1016.6hPa West 2.9mph /  4.7km/h 9mph /  14.5km/h 80% 0in /  0.0mm 51 W/m2
17:56 56.7 °F /  13.7 °C 50.9 °F /  10.5 °C 30in /  1016.6hPa NW 4.9mph /  7.9km/h 7mph /  11.3km/h 81% 0in /  0.0mm 51 W/m2
18:01 56.7 °F /  13.7 °C 50.9 °F /  10.5 °C 30in /  1016.6hPa West 2mph /  3.2km/h 3mph /  4.8km/h 81% 0in /  0.0mm 30 W/m2
18:06 56.5 °F /  13.6 °C 50.7 °F /  10.4 °C 30in /  1016.6hPa WNW 2.9mph /  4.7km/h 9mph /  14.5km/h 81% 0in /  0.0mm 21 W/m2
18:11 56.5 °F /  13.6 °C 50.7 °F /  10.4 °C 30in /  1016.6hPa NW 2mph /  3.2km/h 7mph /  11.3km/h 81% 0in /  0.0mm 16 W/m2
18:16 56.3 °F /  13.5 °C 50.5 °F /  10.3 °C 30in /  1016.6hPa West 4mph /  6.4km/h 9mph /  14.5km/h 81% 0in /  0.0mm 12 W/m2
18:21 56.1 °F /  13.4 °C 50.4 °F /  10.2 °C 30in /  1016.9hPa West 2.9mph /  4.7km/h 5mph /  8km/h 81% 0in /  0.0mm 9 W/m2
18:26 56.1 °F /  13.4 °C 50.7 °F /  10.4 °C 30in /  1016.9hPa NW 2.9mph /  4.7km/h 8mph /  12.9km/h 82% 0in /  0.0mm 9 W/m2
18:31 56.1 °F /  13.4 °C 50.7 °F /  10.4 °C 30in /  1016.9hPa West 4mph /  6.4km/h 5mph /  8km/h 82% 0in /  0.0mm 9 W/m2
18:36 56.1 °F /  13.4 °C 50.7 °F /  10.4 °C 30in /  1016.9hPa West 2.9mph /  4.7km/h 7mph /  11.3km/h 82% 0in /  0.0mm 12 W/m2
18:41 55.9 °F /  13.3 °C 50.5 °F /  10.3 °C 30in /  1016.9hPa WNW 2mph /  3.2km/h 3mph /  4.8km/h 82% 0in /  0.0mm 7 W/m2
18:46 55.9 °F /  13.3 °C 50.9 °F /  10.5 °C 30in /  1016.9hPa WSW 0.9mph /  1.4km/h 5mph /  8km/h 83% 0in /  0.0mm 5 W/m2
18:51 55.8 °F /  13.2 °C 50.7 °F /  10.4 °C 30in /  1016.9hPa WNW 0.9mph /  1.4km/h 8mph /  12.9km/h 83% 0in /  0.0mm 5 W/m2
18:56 55.8 °F /  13.2 °C 50.7 °F /  10.4 °C 30in /  1016.9hPa WNW 4mph /  6.4km/h 7mph /  11.3km/h 83% 0in /  0.0mm 5 W/m2
19:01 55.6 °F /  13.1 °C 50.9 °F /  10.5 °C 30in /  1016.9hPa WNW 2mph /  3.2km/h 2mph /  3.2km/h 84% 0in /  0.0mm 0 W/m2
19:06 55.6 °F /  13.1 °C 50.9 °F /  10.5 °C 30in /  1017.3hPa WNW 2.9mph /  4.7km/h 3mph /  4.8km/h 84% 0in /  0.0mm 0 W/m2
19:11 55.2 °F /  12.9 °C 50.5 °F /  10.3 °C 30in /  1017.3hPa WNW 2mph /  3.2km/h 4mph /  6.4km/h 84% 0in /  0.0mm 0 W/m2
19:16 55 °F /  12.8 °C 50.4 °F /  10.2 °C 30in /  1017.3hPa WNW 2.9mph /  4.7km/h 4mph /  6.4km/h 84% 0in /  0.0mm 0 W/m2
19:21 55 °F /  12.8 °C 50.5 °F /  10.3 °C 30in /  1017.3hPa West 2mph /  3.2km/h 2mph /  3.2km/h 85% 0in /  0.0mm 0 W/m2
19:26 54.9 °F /  12.7 °C 50.4 °F /  10.2 °C 30in /  1017.3hPa West 0.9mph /  1.4km/h 3mph /  4.8km/h 85% 0in /  0.0mm 0 W/m2
19:31 54.7 °F /  12.6 °C 50.5 °F /  10.3 °C 30.1in /  1017.6hPa Calm   4mph /  6.4km/h 86% 0in /  0.0mm 0 W/m2
19:36 54.3 °F /  12.4 °C 50.2 °F /  10.1 °C 30.1in /  1017.6hPa WSW 0.9mph /  1.4km/h 4mph /  6.4km/h 86% 0in /  0.0mm 0 W/m2
19:41 54.1 °F /  12.3 °C 50.4 °F /  10.2 °C 30.1in /  1018.0hPa Calm   1mph /  1.6km/h 87% 0in /  0.0mm 0 W/m2
19:46 54 °F /  12.2 °C 50.2 °F /  10.1 °C 30.1in /  1018.0hPa WNW 2.9mph /  4.7km/h 6mph /  9.7km/h 87% 0in /  0.0mm 0 W/m2
19:51 53.8 °F /  12.1 °C 50.4 °F /  10.2 °C 30.1in /  1018.0hPa WNW 0.9mph /  1.4km/h 2mph /  3.2km/h 88% 0in /  0.0mm 0 W/m2
19:56 53.8 °F /  12.1 °C 50.4 °F /  10.2 °C 30.1in /  1018.0hPa Calm   5mph /  8km/h 88% 0in /  0.0mm 0 W/m2
20:01 53.4 °F /  11.9 °C 50 °F /  10 °C 30.1in /  1018.3hPa WNW 0.9mph /  1.4km/h 4mph /  6.4km/h 88% 0in /  0.0mm 0 W/m2
20:06 53.2 °F /  11.8 °C 50 °F /  10 °C 30.1in /  1018.3hPa WNW 0.9mph /  1.4km/h 1mph /  1.6km/h 89% 0in /  0.0mm 0 W/m2
20:11 53.1 °F /  11.7 °C 49.8 °F /  9.9 °C 30.1in /  1018.3hPa NW 4mph /  6.4km/h 4mph /  6.4km/h 89% 0in /  0.0mm 0 W/m2
20:16 52.9 °F /  11.6 °C 50 °F /  10 °C 30.1in /  1018.6hPa WSW 4mph /  6.4km/h 6mph /  9.7km/h 90% 0in /  0.0mm 0 W/m2
20:21 52.9 °F /  11.6 °C 50 °F /  10 °C 30.1in /  1018.6hPa WNW 2mph /  3.2km/h 5mph /  8km/h 90% 0in /  0.0mm 0 W/m2
20:26 52.9 °F /  11.6 °C 50 °F /  10 °C 30.1in /  1018.6hPa Calm   3mph /  4.8km/h 90% 0in /  0.0mm 0 W/m2
20:32 52.9 °F /  11.6 °C 50 °F /  10 °C 30.1in /  1019.0hPa West 2mph /  3.2km/h 5mph /  8km/h 90% 0in /  0.0mm 0 W/m2
20:37 52.7 °F /  11.5 °C 49.8 °F /  9.9 °C 30.1in /  1019.0hPa SSW 2mph /  3.2km/h 2mph /  3.2km/h 90% 0in /  0.0mm 0 W/m2
20:42 52.7 °F /  11.5 °C 49.8 °F /  9.9 °C 30.1in /  1018.6hPa SW 2.9mph /  4.7km/h 4mph /  6.4km/h 90% 0in /  0.0mm 0 W/m2
20:47 52.7 °F /  11.5 °C 49.8 °F /  9.9 °C 30.1in /  1018.6hPa Calm   3mph /  4.8km/h 90% 0in /  0.0mm 0 W/m2
20:52 52.5 °F /  11.4 °C 49.6 °F /  9.8 °C 30.1in /  1019.0hPa WNW 0.9mph /  1.4km/h 4mph /  6.4km/h 90% 0in /  0.0mm 0 W/m2
20:57 52.7 °F /  11.5 °C 49.8 °F /  9.9 °C 30.1in /  1019.0hPa NW 2mph /  3.2km/h 4mph /  6.4km/h 90% 0in /  0.0mm 0 W/m2
21:02 52.7 °F /  11.5 °C 49.8 °F /  9.9 °C 30.1in /  1019.0hPa WSW 0.9mph /  1.4km/h 4mph /  6.4km/h 90% 0in /  0.0mm 0 W/m2
21:07 52.7 °F /  11.5 °C 49.8 °F /  9.9 °C 30.1in /  1019.0hPa WNW 2mph /  3.2km/h 6mph /  9.7km/h 90% 0in /  0.0mm 0 W/m2
21:12 52.5 °F /  11.4 °C 49.6 °F /  9.8 °C 30.1in /  1019.0hPa WSW 2.9mph /  4.7km/h 6mph /  9.7km/h 90% 0in /  0.0mm 0 W/m2
21:17 52.5 °F /  11.4 °C 49.6 °F /  9.8 °C 30.1in /  1019.0hPa NW 2.9mph /  4.7km/h 3mph /  4.8km/h 90% 0in /  0.0mm 0 W/m2
21:22 52.5 °F /  11.4 °C 49.6 °F /  9.8 °C 30.1in /  1019.0hPa West 0.9mph /  1.4km/h 2mph /  3.2km/h 90% 0in /  0.0mm 0 W/m2
21:27 52.3 °F /  11.3 °C 49.5 °F /  9.7 °C 30.1in /  1019.0hPa WNW 2mph /  3.2km/h 4mph /  6.4km/h 90% 0in /  0.0mm 0 W/m2
21:32 52.3 °F /  11.3 °C 49.5 °F /  9.7 °C 30.1in /  1019.0hPa West 2mph /  3.2km/h 7mph /  11.3km/h 90% 0in /  0.0mm 0 W/m2
21:37 52.3 °F /  11.3 °C 49.5 °F /  9.7 °C 30.1in /  1019.0hPa SSE 2mph /  3.2km/h 3mph /  4.8km/h 90% 0in /  0.0mm 0 W/m2
21:42 52.3 °F /  11.3 °C 49.5 °F /  9.7 °C 30.1in /  1019.3hPa WNW 2mph /  3.2km/h 3mph /  4.8km/h 90% 0in /  0.0mm 0 W/m2
21:47 52.3 °F /  11.3 °C 49.5 °F /  9.7 °C 30.1in /  1019.3hPa West 2.9mph /  4.7km/h 4mph /  6.4km/h 90% 0in /  0.0mm 0 W/m2
21:52 52.2 °F /  11.2 °C 49.3 °F /  9.6 °C 30.1in /  1019.3hPa Calm   4mph /  6.4km/h 90% 0in /  0.0mm 0 W/m2
21:57 52.2 °F /  11.2 °C 49.3 °F /  9.6 °C 30.1in /  1019.3hPa WNW 2mph /  3.2km/h 4mph /  6.4km/h 90% 0in /  0.0mm 0 W/m2
22:02 52.2 °F /  11.2 °C 49.3 °F /  9.6 °C 30.1in /  1019.3hPa West 2mph /  3.2km/h 2mph /  3.2km/h 90% 0in /  0.0mm 0 W/m2
22:07 52 °F /  11.1 °C 49.1 °F /  9.5 °C 30.1in /  1019.3hPa West 2mph /  3.2km/h 2mph /  3.2km/h 90% 0in /  0.0mm 0 W/m2
22:12 51.6 °F /  10.9 °C 48.7 °F /  9.3 °C 30.1in /  1019.6hPa Calm   1mph /  1.6km/h 90% 0in /  0.0mm 0 W/m2
22:17 51.4 °F /  10.8 °C 48.6 °F /  9.2 °C 30.1in /  1019.6hPa Calm   1mph /  1.6km/h 90% 0in /  0.0mm 0 W/m2
22:22 51.1 °F /  10.6 °C 48.6 °F /  9.2 °C 30.1in /  1019.6hPa WNW 0.9mph /  1.4km/h 2mph /  3.2km/h 91% 0in /  0.0mm 0 W/m2
22:27 50.7 °F /  10.4 °C 48.6 °F /  9.2 °C 30.1in /  1019.6hPa Calm   2mph /  3.2km/h 92% 0in /  0.0mm 0 W/m2
22:32 50.7 °F /  10.4 °C 48.6 °F /  9.2 °C 30.1in /  1019.6hPa SW 2mph /  3.2km/h 4mph /  6.4km/h 92% 0in /  0.0mm 0 W/m2
22:37 50.7 °F /  10.4 °C 48.6 °F /  9.2 °C 30.1in /  1019.6hPa West 2.9mph /  4.7km/h 3mph /  4.8km/h 92% 0in /  0.0mm 0 W/m2
22:42 51.1 °F /  10.6 °C 48.9 °F /  9.4 °C 30.1in /  1019.6hPa WNW 0.9mph /  1.4km/h 6mph /  9.7km/h 92% 0in /  0.0mm 0 W/m2
22:47 51.1 °F /  10.6 °C 49.1 °F /  9.5 °C 30.1in /  1019.3hPa Calm   6mph /  9.7km/h 93% 0in /  0.0mm 0 W/m2
22:52 51.3 °F /  10.7 °C 49.1 °F /  9.5 °C 30.1in /  1019.3hPa Calm   3mph /  4.8km/h 92% 0in /  0.0mm 0 W/m2
22:57 51.4 °F /  10.8 °C 49.3 °F /  9.6 °C 30.1in /  1019.3hPa WNW 0.9mph /  1.4km/h 1mph /  1.6km/h 92% 0in /  0.0mm 0 W/m2
23:02 51.6 °F /  10.9 °C 49.5 °F /  9.7 °C 30.1in /  1019.3hPa SW 0.9mph /  1.4km/h 4mph /  6.4km/h 92% 0in /  0.0mm 0 W/m2
23:07 51.8 °F /  11 °C 49.3 °F /  9.6 °C 30.1in /  1019.6hPa WNW 0.9mph /  1.4km/h 1mph /  1.6km/h 91% 0in /  0.0mm 0 W/m2
23:12 52 °F /  11.1 °C 49.5 °F /  9.7 °C 30.1in /  1019.6hPa NNW 2mph /  3.2km/h 2mph /  3.2km/h 91% 0in /  0.0mm 0 W/m2
23:17 52.2 °F /  11.2 °C 49.6 °F /  9.8 °C 30.1in /  1019.6hPa North 2mph /  3.2km/h 3mph /  4.8km/h 91% 0in /  0.0mm 0 W/m2
23:22 52.2 °F /  11.2 °C 49.6 °F /  9.8 °C 30.1in /  1019.6hPa Calm   1mph /  1.6km/h 91% 0in /  0.0mm 0 W/m2
23:27 52.2 °F /  11.2 °C 49.3 °F /  9.6 °C 30.1in /  1019.6hPa NW 2mph /  3.2km/h 2mph /  3.2km/h 90% 0in /  0.0mm 0 W/m2
23:32 52.2 °F /  11.2 °C 49.3 °F /  9.6 °C 30.1in /  1019.6hPa North 2mph /  3.2km/h 2mph /  3.2km/h 90% 0in /  0.0mm 0 W/m2
23:37 52.2 °F /  11.2 °C 49.3 °F /  9.6 °C 30.1in /  1019.6hPa NE 2mph /  3.2km/h 3mph /  4.8km/h 90% 0in /  0.0mm 0 W/m2
23:42 52.2 °F /  11.2 °C 49.3 °F /  9.6 °C 30.1in /  1019.6hPa Calm   2mph /  3.2km/h 90% 0in /  0.0mm 0 W/m2
23:47 52.2 °F /  11.2 °C 49.6 °F /  9.8 °C 30.1in /  1019.6hPa NW 0.9mph /  1.4km/h 4mph /  6.4km/h 91% 0in /  0.0mm 0 W/m2
23:52 52.2 °F /  11.2 °C 49.6 °F /  9.8 °C 30.1in /  1019.6hPa NW 2mph /  3.2km/h 2mph /  3.2km/h 91% 0in /  0.0mm 0 W/m2
23:57 52.2 °F /  11.2 °C 49.6 °F /  9.8 °C 30.1in /  1019.6hPa NW 2mph /  3.2km/h 4mph /  6.4km/h 91% 0in /  0.0mm 0 W/m2
Juneau County Weather
Compliments of Weather Underground - 2 mb